createdAt,value
2023-05-22T00:00:44.454Z,12.41
2023-05-22T00:03:51.020Z,12.39
2023-05-22T00:06:58.888Z,12.30
2023-05-22T00:10:06.105Z,12.44
2023-05-22T00:13:12.597Z,12.29
2023-05-22T00:16:19.008Z,12.43
2023-05-22T00:19:25.258Z,12.33
2023-05-22T00:22:35.736Z,12.37
2023-05-22T00:25:42.449Z,12.44
2023-05-22T00:28:49.034Z,12.35
2023-05-22T00:31:55.619Z,12.21
2023-05-22T00:35:02.000Z,12.27
2023-05-22T00:38:09.705Z,12.08
2023-05-22T00:41:15.957Z,12.26
2023-05-22T00:44:23.176Z,12.44
2023-05-22T00:47:29.362Z,12.37
2023-05-22T00:50:35.568Z,12.12
2023-05-22T00:53:44.730Z,12.02
2023-05-22T00:56:51.636Z,12.09
2023-05-22T00:59:58.893Z,12.19
2023-05-22T01:03:08.154Z,12.01
2023-05-22T01:06:15.397Z,11.89
2023-05-22T01:09:22.843Z,12.27
2023-05-22T01:12:35.657Z,11.84
2023-05-22T01:15:48.789Z,11.86
2023-05-22T01:19:02.928Z,12.07
2023-05-22T01:22:25.163Z,12.05
2023-05-22T01:26:04.103Z,12.13
2023-05-22T01:29:25.101Z,12.10
2023-05-22T01:32:35.052Z,12.16
2023-05-22T01:35:43.058Z,12.12
2023-05-22T01:38:51.448Z,12.10
2023-05-22T01:41:58.114Z,12.07
2023-05-22T01:45:04.578Z,12.08
2023-05-22T01:48:12.640Z,12.06
2023-05-22T01:51:31.739Z,12.06
2023-05-22T01:54:42.392Z,12.02
2023-05-22T01:57:57.315Z,12.11
2023-05-22T02:01:05.272Z,12.02
2023-05-22T02:04:16.445Z,11.98
2023-05-22T02:07:25.112Z,12.02
2023-05-22T02:10:32.942Z,11.79
2023-05-22T02:13:39.839Z,11.96
2023-05-22T02:16:47.778Z,11.89
2023-05-22T02:19:55.674Z,11.89
2023-05-22T02:23:02.243Z,11.99
2023-05-22T02:26:08.568Z,12.02
2023-05-22T02:29:14.652Z,11.90
2023-05-22T02:32:21.046Z,11.90
2023-05-22T02:35:29.047Z,11.95
2023-05-22T02:38:35.651Z,12.00
2023-05-22T02:41:41.787Z,11.93
2023-05-22T02:44:48.103Z,11.95
2023-05-22T02:47:54.384Z,11.90
2023-05-22T02:51:02.232Z,12.05
2023-05-22T02:54:08.496Z,11.94
2023-05-22T02:57:14.722Z,11.57
2023-05-22T03:00:22.544Z,11.73
2023-05-22T03:03:29.693Z,11.51
2023-05-22T03:06:38.391Z,11.71
2023-05-22T03:09:44.978Z,11.74
2023-05-22T03:12:52.012Z,11.67
2023-05-22T03:15:59.899Z,11.79
2023-05-22T03:19:10.486Z,11.74
2023-05-22T03:22:18.777Z,11.69
2023-05-22T03:25:25.524Z,11.70
2023-05-22T03:28:32.074Z,11.62
2023-05-22T03:31:38.345Z,11.72
2023-05-22T03:34:44.738Z,11.59
2023-05-22T03:37:52.342Z,11.45
2023-05-22T03:40:59.020Z,11.44
2023-05-22T03:44:05.347Z,11.68
2023-05-22T03:47:11.922Z,11.52
2023-05-22T03:50:18.412Z,11.65
2023-05-22T03:53:25.859Z,12.02
2023-05-22T03:56:32.153Z,12.40
2023-05-22T03:59:38.282Z,11.86
2023-05-22T04:06:10.954Z,12.13
2023-05-22T04:09:18.876Z,12.09
2023-05-22T04:12:25.570Z,12.05
2023-05-22T04:15:34.016Z,11.99
2023-05-22T04:18:40.283Z,11.85
2023-05-22T04:21:46.627Z,12.00
2023-05-22T04:24:54.179Z,12.16
2023-05-22T04:28:03.183Z,11.99
2023-05-22T04:31:09.831Z,11.86
2023-05-22T04:34:18.594Z,12.15
2023-05-22T04:37:26.590Z,12.37
2023-05-22T04:40:34.569Z,11.94
2023-05-22T04:43:40.764Z,11.85
2023-05-22T04:46:47.225Z,11.98
2023-05-22T04:49:53.835Z,11.98
2023-05-22T04:53:04.478Z,12.14
2023-05-22T04:56:14.665Z,12.51
2023-05-22T04:59:23.434Z,12.33
2023-05-22T05:02:30.038Z,12.78
2023-05-22T05:05:36.485Z,12.87
2023-05-22T05:08:44.425Z,12.64
2023-05-22T05:11:52.170Z,12.68
2023-05-22T05:14:58.819Z,12.64
2023-05-22T05:18:05.189Z,12.93
2023-05-22T05:21:11.327Z,13.09
2023-05-22T05:24:18.565Z,13.12
2023-05-22T05:27:26.245Z,13.28
2023-05-22T05:30:32.263Z,13.27
2023-05-22T05:33:38.440Z,13.39
2023-05-22T05:36:45.154Z,13.45
2023-05-22T05:39:51.757Z,13.56
2023-05-22T05:42:59.383Z,13.58
2023-05-22T05:46:06.349Z,13.48
2023-05-22T05:49:13.167Z,13.39
2023-05-22T05:52:19.772Z,13.32
2023-05-22T05:55:26.194Z,13.47
2023-05-22T05:58:34.183Z,13.34
2023-05-22T06:01:44.761Z,13.31
2023-05-22T06:04:51.170Z,13.63
2023-05-22T06:07:58.379Z,13.71
2023-05-22T06:11:05.041Z,13.74
2023-05-22T06:14:12.798Z,13.86
2023-05-22T06:17:19.497Z,13.93
2023-05-22T06:20:26.316Z,13.96
2023-05-22T06:23:32.858Z,13.60
2023-05-22T06:26:39.375Z,14.09
2023-05-22T06:29:47.123Z,14.06
2023-05-22T06:32:54.038Z,14.34
2023-05-22T06:36:01.119Z,14.63
2023-05-22T06:39:08.725Z,14.48
2023-05-22T06:42:15.291Z,14.47
2023-05-22T06:45:23.049Z,14.51
2023-05-22T06:48:29.806Z,14.78
2023-05-22T06:51:36.224Z,14.73
2023-05-22T06:54:44.093Z,14.89
2023-05-22T06:57:51.123Z,15.05
2023-05-22T07:00:59.021Z,15.24
2023-05-22T07:04:06.220Z,14.97
2023-05-22T07:07:12.830Z,15.13
2023-05-22T07:10:19.480Z,15.40
2023-05-22T07:13:26.068Z,15.32
2023-05-22T07:16:33.631Z,15.38
2023-05-22T07:19:40.082Z,15.62
2023-05-22T07:22:46.211Z,15.91
2023-05-22T07:25:52.491Z,15.54
2023-05-22T07:28:58.710Z,15.91
2023-05-22T07:32:07.402Z,15.85
2023-05-22T07:35:14.083Z,15.99
2023-05-22T07:38:21.320Z,16.12
2023-05-22T07:41:28.453Z,16.20
2023-05-22T07:44:34.878Z,15.67
2023-05-22T07:47:42.745Z,16.06
2023-05-22T07:50:49.482Z,15.96
2023-05-22T07:53:55.928Z,15.93
2023-05-22T07:57:04.557Z,15.94
2023-05-22T08:00:14.032Z,16.33
2023-05-22T08:03:23.998Z,16.50
2023-05-22T08:06:31.152Z,16.65
2023-05-22T08:09:37.896Z,16.63
2023-05-22T08:12:44.677Z,16.65
2023-05-22T08:15:51.177Z,16.55
2023-05-22T08:19:09.213Z,16.48
2023-05-22T08:22:15.663Z,16.39
2023-05-22T08:25:21.966Z,16.06
2023-05-22T08:28:28.279Z,16.08
2023-05-22T08:31:34.640Z,15.77
2023-05-22T08:34:43.000Z,15.50
2023-05-22T08:37:49.460Z,15.69
2023-05-22T08:40:56.115Z,15.75
2023-05-22T08:44:02.301Z,15.80
2023-05-22T08:47:11.488Z,15.70
2023-05-22T08:50:20.245Z,15.39
2023-05-22T08:53:29.782Z,15.66
2023-05-22T08:56:39.798Z,15.17
2023-05-22T08:59:52.875Z,15.17
2023-05-22T09:02:59.672Z,14.69
2023-05-22T09:06:09.558Z,14.65
2023-05-22T09:09:16.088Z,14.32
2023-05-22T09:12:22.546Z,14.41
2023-05-22T09:15:31.421Z,14.28
2023-05-22T09:18:38.475Z,14.37
2023-05-22T09:21:46.423Z,14.27
2023-05-22T09:24:53.726Z,14.42
2023-05-22T09:27:59.880Z,14.52
2023-05-22T09:31:06.804Z,14.52
2023-05-22T09:34:15.726Z,14.51
2023-05-22T09:37:24.108Z,14.77
2023-05-22T09:40:31.975Z,14.97
2023-05-22T09:43:38.630Z,15.01
2023-05-22T09:46:47.330Z,15.02
2023-05-22T09:49:53.976Z,15.35
2023-05-22T09:53:04.201Z,15.14
2023-05-22T09:56:19.126Z,15.35
2023-05-22T09:59:31.592Z,15.78
2023-05-22T10:02:39.459Z,16.00
2023-05-22T10:05:50.004Z,16.12
2023-05-22T10:09:04.078Z,16.45
2023-05-22T10:12:16.330Z,16.51
2023-05-22T10:15:23.113Z,16.88
2023-05-22T10:18:30.407Z,17.10
2023-05-22T10:21:38.143Z,17.19
2023-05-22T10:24:47.887Z,17.41
2023-05-22T10:27:55.209Z,17.40
2023-05-22T10:31:06.498Z,17.87
2023-05-22T10:34:24.979Z,18.25
2023-05-22T10:37:44.225Z,18.37
2023-05-22T10:40:52.959Z,18.79
2023-05-22T10:43:59.615Z,18.77
2023-05-22T10:47:10.422Z,18.39
2023-05-22T10:50:19.607Z,18.45
2023-05-22T10:53:28.131Z,17.91
2023-05-22T10:56:37.343Z,17.64
2023-05-22T10:59:43.733Z,17.95
2023-05-22T11:02:49.958Z,18.17
2023-05-22T11:05:56.216Z,18.53
2023-05-22T11:09:18.894Z,18.42
2023-05-22T11:12:28.910Z,18.22
2023-05-22T11:15:35.664Z,18.19
2023-05-22T11:18:41.984Z,18.39
2023-05-22T11:21:48.812Z,17.48
2023-05-22T11:24:56.531Z,17.23
2023-05-22T11:28:05.964Z,16.86
2023-05-22T11:31:12.351Z,16.02
2023-05-22T11:34:18.879Z,16.03
2023-05-22T11:37:25.836Z,15.79
2023-05-22T11:40:32.383Z,15.74
2023-05-22T11:43:43.543Z,15.82
2023-05-22T11:46:50.157Z,16.16
2023-05-22T11:49:58.280Z,16.27
2023-05-22T11:53:04.727Z,16.28
2023-05-22T11:56:11.448Z,16.61
2023-05-22T11:59:22.201Z,16.58
2023-05-22T12:02:28.965Z,16.81
2023-05-22T12:05:35.587Z,16.71
2023-05-22T12:08:42.973Z,16.72
2023-05-22T12:11:50.021Z,16.97
2023-05-22T12:14:59.166Z,17.12
2023-05-22T12:18:09.498Z,16.80
2023-05-22T12:21:15.957Z,17.00
2023-05-22T12:24:23.618Z,16.86
2023-05-22T12:27:33.511Z,16.94
2023-05-22T12:30:45.180Z,16.57
2023-05-22T12:33:55.429Z,16.94
2023-05-22T12:37:02.047Z,17.25
2023-05-22T12:40:10.150Z,17.33
2023-05-22T12:43:16.820Z,17.48
2023-05-22T12:46:24.515Z,17.28
2023-05-22T12:49:31.063Z,17.59
2023-05-22T12:52:37.764Z,17.49
2023-05-22T12:55:44.895Z,17.85
2023-05-22T12:58:51.382Z,17.67
2023-05-22T13:02:02.419Z,17.52
2023-05-22T13:05:09.280Z,17.40
2023-05-22T13:08:15.739Z,17.47
2023-05-22T13:11:23.553Z,17.59
2023-05-22T13:14:29.761Z,17.95
2023-05-22T13:17:37.689Z,17.76
2023-05-22T13:20:44.383Z,17.28
2023-05-22T13:23:50.806Z,17.46
2023-05-22T13:26:57.170Z,17.78
2023-05-22T13:30:03.690Z,17.96
2023-05-22T13:33:12.433Z,17.98
2023-05-22T13:36:19.488Z,18.28
2023-05-22T13:39:25.764Z,18.01
2023-05-22T13:42:32.291Z,18.32
2023-05-22T13:45:38.746Z,18.23
2023-05-22T13:48:46.590Z,18.28
2023-05-22T13:51:53.037Z,18.19
2023-05-22T13:54:59.076Z,18.56
2023-05-22T13:58:05.503Z,18.49
2023-05-22T14:01:11.610Z,18.74
2023-05-22T14:04:19.165Z,18.60
2023-05-22T14:07:25.292Z,18.54
2023-05-22T14:10:31.302Z,18.71
2023-05-22T14:13:37.526Z,18.94
2023-05-22T14:16:44.219Z,19.31
2023-05-22T14:19:51.875Z,18.93
2023-05-22T14:22:58.659Z,18.98
2023-05-22T14:26:05.015Z,19.23
2023-05-22T14:29:11.826Z,19.02
2023-05-22T14:32:18.470Z,18.76
2023-05-22T14:35:26.047Z,18.77
2023-05-22T14:38:34.479Z,18.90
2023-05-22T14:41:40.820Z,18.37
2023-05-22T14:44:46.933Z,18.09
2023-05-22T14:47:53.398Z,18.18
2023-05-22T14:51:01.450Z,18.15
2023-05-22T14:54:08.170Z,18.19
2023-05-22T14:57:14.477Z,17.97
2023-05-22T15:00:20.827Z,17.93
2023-05-22T15:03:27.154Z,18.04
2023-05-22T15:06:35.896Z,17.98
2023-05-22T15:09:42.185Z,17.72
2023-05-22T15:12:48.516Z,17.81
2023-05-22T15:15:54.486Z,18.32
2023-05-22T15:19:00.933Z,17.96
2023-05-22T15:22:19.477Z,18.04
2023-05-22T15:25:26.667Z,18.13
2023-05-22T15:28:32.944Z,18.14
2023-05-22T15:31:39.207Z,17.83
2023-05-22T15:34:45.338Z,17.96
2023-05-22T15:37:52.964Z,17.59
2023-05-22T15:40:59.755Z,17.71
2023-05-22T15:44:06.210Z,17.55
2023-05-22T15:47:12.225Z,17.62
2023-05-22T15:50:18.587Z,17.49
2023-05-22T15:53:26.227Z,17.42
2023-05-22T15:56:32.169Z,17.39
2023-05-22T15:59:38.230Z,17.41
2023-05-22T16:02:44.384Z,17.27
2023-05-22T16:05:51.050Z,17.47
2023-05-22T16:08:58.656Z,17.09
2023-05-22T16:12:05.753Z,16.89
2023-05-22T16:15:13.098Z,17.05
2023-05-22T16:18:21.532Z,16.94
2023-05-22T16:21:27.668Z,16.69
2023-05-22T16:24:35.424Z,16.88
2023-05-22T16:27:41.862Z,16.83
2023-05-22T16:30:48.117Z,16.92
2023-05-22T16:33:54.405Z,16.87
2023-05-22T16:37:03.405Z,16.72
2023-05-22T16:40:12.247Z,16.45
2023-05-22T16:43:18.834Z,16.24
2023-05-22T16:46:25.445Z,16.50
2023-05-22T16:49:31.543Z,16.55
2023-05-22T16:52:38.037Z,16.35
2023-05-22T16:55:45.772Z,16.08
2023-05-22T16:58:52.065Z,16.11
2023-05-22T17:01:58.349Z,16.17
2023-05-22T17:05:04.544Z,15.98
2023-05-22T17:08:10.731Z,16.47
2023-05-22T17:11:18.286Z,16.30
2023-05-22T17:14:26.025Z,16.10
2023-05-22T17:17:32.474Z,16.03
2023-05-22T17:20:38.533Z,15.99
2023-05-22T17:23:44.711Z,15.85
2023-05-22T17:26:52.548Z,15.42
2023-05-22T17:29:59.150Z,15.38
2023-05-22T17:33:05.358Z,15.20
2023-05-22T17:36:11.600Z,15.34
2023-05-22T17:39:17.646Z,15.28
2023-05-22T17:42:25.292Z,14.93
2023-05-22T17:45:32.086Z,14.68
2023-05-22T17:48:38.386Z,14.58
2023-05-22T17:51:44.729Z,14.49
2023-05-22T17:54:51.175Z,14.46
2023-05-22T17:57:59.022Z,14.53
2023-05-22T18:01:05.615Z,14.30
2023-05-22T18:04:12.595Z,14.49
2023-05-22T18:07:20.091Z,14.64
2023-05-22T18:10:26.416Z,14.35
2023-05-22T18:13:33.880Z,13.74
2023-05-22T18:16:40.037Z,13.60
2023-05-22T18:19:46.113Z,13.91
2023-05-22T18:22:52.393Z,13.79
2023-05-22T18:25:58.566Z,13.70
2023-05-22T18:29:06.316Z,14.20
2023-05-22T18:32:13.983Z,13.91
2023-05-22T18:35:20.336Z,13.72
2023-05-22T18:38:27.462Z,13.94
2023-05-22T18:41:33.980Z,13.98
2023-05-22T18:44:41.520Z,13.91
2023-05-22T18:47:48.000Z,13.85
2023-05-22T18:50:55.746Z,13.84
2023-05-22T18:54:01.849Z,13.85
2023-05-22T18:57:08.364Z,13.98
2023-05-22T19:00:16.412Z,13.82
2023-05-22T19:03:22.909Z,13.61
2023-05-22T19:06:29.171Z,13.52
2023-05-22T19:09:35.442Z,13.58
2023-05-22T19:12:41.562Z,13.54
2023-05-22T19:15:49.077Z,13.44
2023-05-22T19:18:55.408Z,13.40
2023-05-22T19:22:01.591Z,13.29
2023-05-22T19:25:08.534Z,13.30
2023-05-22T19:28:14.612Z,13.36
2023-05-22T19:31:22.196Z,13.65
2023-05-22T19:34:28.697Z,13.57
2023-05-22T19:37:34.560Z,13.47
2023-05-22T19:40:40.894Z,13.49
2023-05-22T19:43:47.532Z,13.55
2023-05-22T19:46:56.774Z,13.51
2023-05-22T19:50:03.792Z,13.49
2023-05-22T19:53:10.120Z,13.53
2023-05-22T19:56:16.327Z,13.49
2023-05-22T19:59:22.564Z,13.50
2023-05-22T20:02:30.420Z,13.32
2023-05-22T20:05:37.260Z,13.34
2023-05-22T20:08:44.281Z,13.26
2023-05-22T20:11:50.331Z,13.35
2023-05-22T20:14:58.432Z,13.28
2023-05-22T20:18:07.004Z,13.27
2023-05-22T20:21:13.479Z,13.32
2023-05-22T20:24:21.198Z,13.11
2023-05-22T20:27:27.405Z,12.94
2023-05-22T20:30:33.809Z,13.28
2023-05-22T20:33:41.437Z,13.13
2023-05-22T20:36:48.620Z,13.44
2023-05-22T20:39:55.136Z,13.34
2023-05-22T20:43:02.708Z,13.23
2023-05-22T20:46:09.610Z,13.32
2023-05-22T20:49:20.640Z,13.38
2023-05-22T20:52:30.440Z,13.11
2023-05-22T20:55:37.321Z,13.12
2023-05-22T20:58:43.904Z,13.06
2023-05-22T21:01:50.043Z,13.04
2023-05-22T21:04:57.506Z,13.03
2023-05-22T21:08:03.964Z,12.95
2023-05-22T21:11:10.578Z,12.95
2023-05-22T21:14:17.409Z,12.87
2023-05-22T21:17:24.372Z,12.86
2023-05-22T21:20:31.978Z,12.77
2023-05-22T21:23:38.291Z,12.93
2023-05-22T21:26:44.330Z,13.05
2023-05-22T21:29:50.109Z,13.09
2023-05-22T21:32:56.545Z,13.18
2023-05-22T21:36:04.192Z,13.00
2023-05-22T21:39:10.961Z,12.90
2023-05-22T21:42:17.458Z,12.70
2023-05-22T21:45:23.789Z,12.90
2023-05-22T21:48:30.140Z,12.83
2023-05-22T21:51:37.898Z,12.96
2023-05-22T21:54:44.183Z,12.81
2023-05-22T21:57:50.560Z,13.26
2023-05-22T22:00:57.028Z,12.87
2023-05-22T22:04:03.209Z,12.79
2023-05-22T22:07:10.890Z,12.82
2023-05-22T22:10:17.179Z,12.79
2023-05-22T22:13:23.569Z,12.73
2023-05-22T22:16:29.778Z,12.81
2023-05-22T22:19:36.170Z,12.88
2023-05-22T22:22:43.791Z,12.79
2023-05-22T22:25:50.075Z,12.67
2023-05-22T22:28:56.087Z,12.71
2023-05-22T22:32:02.226Z,12.77
2023-05-22T22:35:09.196Z,12.41
2023-05-22T22:38:17.056Z,12.29
2023-05-22T22:41:23.503Z,12.65
2023-05-22T22:44:29.677Z,12.33
2023-05-22T22:47:36.388Z,12.72
2023-05-22T22:50:42.968Z,12.26
2023-05-22T22:53:50.612Z,12.01
2023-05-22T22:56:57.456Z,12.08
2023-05-22T23:00:04.474Z,12.21
2023-05-22T23:03:11.535Z,12.31
2023-05-22T23:06:18.499Z,12.61
2023-05-22T23:09:25.936Z,12.65
2023-05-22T23:12:35.282Z,12.71
2023-05-22T23:15:42.427Z,12.27
2023-05-22T23:18:48.847Z,12.40
2023-05-22T23:21:54.913Z,12.20
2023-05-22T23:25:02.496Z,12.45
2023-05-22T23:28:08.789Z,12.35
2023-05-22T23:31:14.990Z,12.32
2023-05-22T23:34:21.519Z,12.42
2023-05-22T23:37:27.820Z,12.46
2023-05-22T23:40:35.202Z,12.56
2023-05-22T23:43:41.544Z,12.44
2023-05-22T23:46:48.321Z,12.48
2023-05-22T23:49:56.787Z,12.32
2023-05-22T23:53:02.876Z,12.27
2023-05-22T23:56:10.998Z,12.21
2023-05-22T23:59:16.987Z,12.29
